createdAt,value
2018-06-10T00:00:34.616Z,1005.93
2018-06-10T00:01:34.605Z,1005.88
2018-06-10T00:02:34.583Z,1005.90
2018-06-10T00:03:34.567Z,1005.87
2018-06-10T00:04:34.553Z,1005.87
2018-06-10T00:05:34.545Z,1005.91
2018-06-10T00:06:34.530Z,1005.94
2018-06-10T00:07:34.509Z,1005.94
2018-06-10T00:08:34.497Z,1005.99
2018-06-10T00:09:34.482Z,1006.00
2018-06-10T00:10:35.157Z,1006.00
2018-06-10T00:11:34.455Z,1005.95
2018-06-10T00:12:34.439Z,1005.94
2018-06-10T00:13:34.422Z,1005.95
2018-06-10T00:14:34.408Z,1005.93
2018-06-10T00:15:34.401Z,1005.96
2018-06-10T00:16:34.380Z,1005.99
2018-06-10T00:17:34.364Z,1005.97
2018-06-10T00:18:34.353Z,1005.98
2018-06-10T00:19:34.333Z,1005.98
2018-06-10T00:20:34.329Z,1006.02
2018-06-10T00:21:34.314Z,1006.02
2018-06-10T00:22:34.291Z,1006.02
2018-06-10T00:23:34.276Z,1006.00
2018-06-10T00:24:34.264Z,1005.96
2018-06-10T00:25:34.249Z,1005.99
2018-06-10T00:26:34.234Z,1005.95
2018-06-10T00:27:34.217Z,1005.91
2018-06-10T00:28:34.203Z,1005.89
2018-06-10T00:29:34.192Z,1005.86
2018-06-10T00:30:34.189Z,1005.80
2018-06-10T00:31:34.160Z,1005.76
2018-06-10T00:32:34.148Z,1005.68
2018-06-10T00:33:34.129Z,1005.68
2018-06-10T00:34:34.125Z,1005.65
2018-06-10T00:35:34.106Z,1005.65
2018-06-10T00:36:34.088Z,1005.61
2018-06-10T00:37:34.071Z,1005.63
2018-06-10T00:38:34.059Z,1005.65
2018-06-10T00:39:34.048Z,1005.64
2018-06-10T00:40:34.035Z,1005.62
2018-06-10T00:41:34.017Z,1005.66
2018-06-10T00:42:34.001Z,1005.68
2018-06-10T00:43:33.986Z,1005.68
2018-06-10T00:44:33.982Z,1005.64
2018-06-10T00:45:33.958Z,1005.63
2018-06-10T00:46:33.944Z,1005.62
2018-06-10T00:47:33.927Z,1005.60
2018-06-10T00:48:33.912Z,1005.59
2018-06-10T00:49:33.899Z,1005.58
2018-06-10T00:50:33.882Z,1005.61
2018-06-10T00:51:33.867Z,1005.58
2018-06-10T00:52:33.856Z,1005.60
2018-06-10T00:53:33.840Z,1005.63
2018-06-10T00:54:33.826Z,1005.63
2018-06-10T00:55:33.814Z,1005.58
2018-06-10T00:56:33.799Z,1005.55
2018-06-10T00:57:33.785Z,1005.55
2018-06-10T00:58:33.768Z,1005.51
2018-06-10T00:59:33.753Z,1005.44
2018-06-10T01:00:33.736Z,1005.45
2018-06-10T01:01:33.722Z,1005.43
2018-06-10T01:02:33.750Z,1005.44
2018-06-10T01:03:33.699Z,1005.47
2018-06-10T01:04:33.677Z,1005.44
2018-06-10T01:05:33.662Z,1005.47
2018-06-10T01:06:33.697Z,1005.50
2018-06-10T01:07:33.635Z,1005.50
2018-06-10T01:08:33.621Z,1005.54
2018-06-10T01:09:33.607Z,1005.57
2018-06-10T01:10:33.599Z,1005.64
2018-06-10T01:11:33.575Z,1005.65
2018-06-10T01:12:33.560Z,1005.69
2018-06-10T01:13:33.556Z,1005.69
2018-06-10T01:14:33.583Z,1005.71
2018-06-10T01:15:33.542Z,1005.72
2018-06-10T01:16:34.175Z,1005.75
2018-06-10T01:17:33.495Z,1005.81
2018-06-10T01:18:33.480Z,1005.85
2018-06-10T01:19:33.493Z,1005.94
2018-06-10T01:20:33.441Z,1006.06
2018-06-10T01:21:33.429Z,1006.16
2018-06-10T01:22:33.418Z,1006.21
2018-06-10T01:23:33.404Z,1006.20
2018-06-10T01:24:34.198Z,1006.21
2018-06-10T01:25:33.373Z,1006.13
2018-06-10T01:26:33.359Z,1006.06
2018-06-10T01:27:33.401Z,1006.05
2018-06-10T01:28:33.330Z,1006.05
2018-06-10T01:29:34.175Z,1006.03
2018-06-10T01:30:33.295Z,1005.97
2018-06-10T01:31:36.130Z,1005.93
2018-06-10T01:32:33.267Z,1005.82
2018-06-10T01:33:33.252Z,1005.78
2018-06-10T01:34:33.252Z,1005.81
2018-06-10T01:35:33.252Z,1005.85
2018-06-10T01:36:33.250Z,1005.85
2018-06-10T01:37:33.194Z,1005.81
2018-06-10T01:38:33.322Z,1005.73
2018-06-10T01:39:33.226Z,1005.72
2018-06-10T01:40:33.143Z,1005.69
2018-06-10T01:41:33.186Z,1005.70
2018-06-10T01:42:33.117Z,1005.67
2018-06-10T01:43:33.100Z,1005.66
2018-06-10T01:44:33.087Z,1005.64
2018-06-10T01:45:33.069Z,1005.64
2018-06-10T01:46:33.093Z,1005.67
2018-06-10T01:47:33.106Z,1005.69
2018-06-10T01:48:33.025Z,1005.66
2018-06-10T01:49:33.058Z,1005.59
2018-06-10T01:50:33.004Z,1005.59
2018-06-10T01:51:33.024Z,1005.56
2018-06-10T01:52:33.018Z,1005.54
2018-06-10T01:53:32.951Z,1005.50
2018-06-10T01:54:32.967Z,1005.46
2018-06-10T01:55:32.920Z,1005.46
2018-06-10T01:56:32.911Z,1005.47
2018-06-10T01:57:32.948Z,1005.48
2018-06-10T01:58:32.902Z,1005.46
2018-06-10T01:59:32.858Z,1005.43
2018-06-10T02:00:32.849Z,1005.44
2018-06-10T02:01:32.831Z,1005.47
2018-06-10T02:02:32.816Z,1005.48
2018-06-10T02:03:32.804Z,1005.48
2018-06-10T02:04:32.786Z,1005.52
2018-06-10T02:05:32.770Z,1005.50
2018-06-10T02:06:32.784Z,1005.52
2018-06-10T02:07:32.774Z,1005.56
2018-06-10T02:08:32.723Z,1005.55
2018-06-10T02:09:32.710Z,1005.55
2018-06-10T02:10:32.700Z,1005.58
2018-06-10T02:11:32.735Z,1005.52
2018-06-10T02:12:32.670Z,1005.48
2018-06-10T02:13:32.683Z,1005.45
2018-06-10T02:14:32.636Z,1005.44
2018-06-10T02:15:32.631Z,1005.45
2018-06-10T02:16:32.609Z,1005.44
2018-06-10T02:17:32.591Z,1005.38
2018-06-10T02:18:32.576Z,1005.35
2018-06-10T02:19:32.563Z,1005.35
2018-06-10T02:20:32.546Z,1005.31
2018-06-10T02:21:32.532Z,1005.35
2018-06-10T02:22:32.518Z,1005.36
2018-06-10T02:23:32.502Z,1005.36
2018-06-10T02:24:32.488Z,1005.38
2018-06-10T02:25:32.473Z,1005.34
2018-06-10T02:26:32.459Z,1005.36
2018-06-10T02:27:32.446Z,1005.34
2018-06-10T02:28:32.428Z,1005.34
2018-06-10T02:29:32.414Z,1005.34
2018-06-10T02:30:32.400Z,1005.34
2018-06-10T02:31:32.385Z,1005.35
2018-06-10T02:32:32.374Z,1005.38
2018-06-10T02:33:32.360Z,1005.39
2018-06-10T02:34:32.344Z,1005.37
2018-06-10T02:35:32.329Z,1005.43
2018-06-10T02:36:32.313Z,1005.42
2018-06-10T02:37:32.295Z,1005.49
2018-06-10T02:38:32.285Z,1005.49
2018-06-10T02:39:32.268Z,1005.56
2018-06-10T02:40:32.261Z,1005.53
2018-06-10T02:41:32.243Z,1005.55
2018-06-10T02:42:32.223Z,1005.52
2018-06-10T02:43:32.208Z,1005.54
2018-06-10T02:44:32.192Z,1005.52
2018-06-10T02:45:32.178Z,1005.50
2018-06-10T02:46:32.164Z,1005.48
2018-06-10T02:47:32.148Z,1005.51
2018-06-10T02:48:32.141Z,1005.50
2018-06-10T02:49:32.119Z,1005.50
2018-06-10T02:50:32.105Z,1005.55
2018-06-10T02:51:32.087Z,1005.49
2018-06-10T02:52:32.081Z,1005.51
2018-06-10T02:53:32.060Z,1005.52
2018-06-10T02:54:32.047Z,1005.53
2018-06-10T02:55:32.029Z,1005.53
2018-06-10T02:56:32.014Z,1005.56
2018-06-10T02:57:31.999Z,1005.55
2018-06-10T02:58:31.991Z,1005.54
2018-06-10T02:59:31.974Z,1005.56
2018-06-10T03:00:31.960Z,1005.55
2018-06-10T03:01:31.944Z,1005.57
2018-06-10T03:02:31.930Z,1005.56
2018-06-10T03:03:31.916Z,1005.53
2018-06-10T03:04:31.901Z,1005.56
2018-06-10T03:05:31.887Z,1005.55
2018-06-10T03:06:31.868Z,1005.52
2018-06-10T03:07:31.861Z,1005.54
2018-06-10T03:08:31.844Z,1005.51
2018-06-10T03:09:31.841Z,1005.53
2018-06-10T03:10:31.809Z,1005.52
2018-06-10T03:11:31.796Z,1005.48
2018-06-10T03:12:31.781Z,1005.45
2018-06-10T03:13:31.766Z,1005.47
2018-06-10T03:14:31.762Z,1005.41
2018-06-10T03:15:31.770Z,1005.44
2018-06-10T03:16:31.722Z,1005.37
2018-06-10T03:17:31.712Z,1005.38
2018-06-10T03:18:31.696Z,1005.38
2018-06-10T03:19:31.677Z,1005.38
2018-06-10T03:20:31.661Z,1005.35
2018-06-10T03:21:31.662Z,1005.32
2018-06-10T03:22:31.634Z,1005.30
2018-06-10T03:23:31.617Z,1005.31
2018-06-10T03:24:31.615Z,1005.29
2018-06-10T03:25:31.620Z,1005.28
2018-06-10T03:26:31.626Z,1005.24
2018-06-10T03:27:31.562Z,1005.24
2018-06-10T03:28:31.546Z,1005.26
2018-06-10T03:29:31.535Z,1005.28
2018-06-10T03:30:31.519Z,1005.30
2018-06-10T03:31:31.506Z,1005.32
2018-06-10T03:32:31.501Z,1005.35
2018-06-10T03:33:31.472Z,1005.40
2018-06-10T03:34:31.850Z,1005.39
2018-06-10T03:35:31.444Z,1005.41
2018-06-10T03:36:31.427Z,1005.41
2018-06-10T03:37:31.415Z,1005.45
2018-06-10T03:38:31.398Z,1005.50
2018-06-10T03:39:31.382Z,1005.52
2018-06-10T03:40:31.368Z,1005.54
2018-06-10T03:41:31.365Z,1005.50
2018-06-10T03:42:31.358Z,1005.55
2018-06-10T03:43:31.324Z,1005.57
2018-06-10T03:44:31.311Z,1005.52
2018-06-10T03:45:31.295Z,1005.52
2018-06-10T03:46:31.286Z,1005.54
2018-06-10T03:47:31.269Z,1005.54
2018-06-10T03:48:31.251Z,1005.54
2018-06-10T03:49:31.235Z,1005.57
2018-06-10T03:50:31.222Z,1005.53
2018-06-10T03:51:31.203Z,1005.57
2018-06-10T03:52:31.191Z,1005.59
2018-06-10T03:53:31.178Z,1005.57
2018-06-10T03:54:31.163Z,1005.56
2018-06-10T03:55:31.148Z,1005.55
2018-06-10T03:56:31.135Z,1005.50
2018-06-10T03:57:31.120Z,1005.50
2018-06-10T03:58:31.103Z,1005.49
2018-06-10T03:59:31.087Z,1005.50
2018-06-10T04:00:31.077Z,1005.50
2018-06-10T04:01:31.060Z,1005.48
2018-06-10T04:02:31.049Z,1005.46
2018-06-10T04:03:31.028Z,1005.47
2018-06-10T04:04:31.014Z,1005.46
2018-06-10T04:05:31.853Z,1005.50
2018-06-10T04:06:30.988Z,1005.46
2018-06-10T04:07:30.969Z,1005.47
2018-06-10T04:08:30.961Z,1005.50
2018-06-10T04:09:30.940Z,1005.50
2018-06-10T04:10:30.934Z,1005.53
2018-06-10T04:11:30.912Z,1005.50
2018-06-10T04:12:30.905Z,1005.53
2018-06-10T04:13:30.886Z,1005.50
2018-06-10T04:14:30.865Z,1005.56
2018-06-10T04:15:30.888Z,1005.55
2018-06-10T04:16:30.836Z,1005.57
2018-06-10T04:17:30.844Z,1005.55
2018-06-10T04:18:30.811Z,1005.56
2018-06-10T04:19:30.796Z,1005.55
2018-06-10T04:20:30.786Z,1005.56
2018-06-10T04:21:30.761Z,1005.55
2018-06-10T04:22:30.796Z,1005.57
2018-06-10T04:23:30.735Z,1005.59
2018-06-10T04:24:30.726Z,1005.59
2018-06-10T04:25:30.705Z,1005.60
2018-06-10T04:26:30.693Z,1005.59
2018-06-10T04:27:30.673Z,1005.54
2018-06-10T04:28:30.676Z,1005.59
2018-06-10T04:29:30.672Z,1005.56
2018-06-10T04:30:30.635Z,1005.54
2018-06-10T04:31:30.615Z,1005.53
2018-06-10T04:32:30.601Z,1005.53
2018-06-10T04:33:30.589Z,1005.56
2018-06-10T04:34:30.570Z,1005.54
2018-06-10T04:35:30.554Z,1005.56
2018-06-10T04:36:30.541Z,1005.53
2018-06-10T04:37:30.528Z,1005.53
2018-06-10T04:38:30.513Z,1005.51
2018-06-10T04:39:30.496Z,1005.51
2018-06-10T04:40:30.485Z,1005.49
2018-06-10T04:41:30.469Z,1005.51
2018-06-10T04:42:30.459Z,1005.47
2018-06-10T04:43:30.439Z,1005.48
2018-06-10T04:44:30.428Z,1005.47
2018-06-10T04:45:30.409Z,1005.50
2018-06-10T04:46:30.399Z,1005.49
2018-06-10T04:47:30.393Z,1005.48
2018-06-10T04:48:30.363Z,1005.49
2018-06-10T04:49:30.350Z,1005.48
2018-06-10T04:50:30.362Z,1005.48
2018-06-10T04:51:30.319Z,1005.48
2018-06-10T04:52:30.307Z,1005.49
2018-06-10T04:53:30.293Z,1005.47
2018-06-10T04:54:30.277Z,1005.48
2018-06-10T04:55:30.261Z,1005.41
2018-06-10T04:56:30.248Z,1005.42
2018-06-10T04:57:30.230Z,1005.41
2018-06-10T04:58:30.220Z,1005.36
2018-06-10T04:59:30.201Z,1005.37
2018-06-10T05:00:30.186Z,1005.38
2018-06-10T05:01:30.184Z,1005.39
2018-06-10T05:02:30.157Z,1005.40
2018-06-10T05:03:30.150Z,1005.38
2018-06-10T05:04:30.130Z,1005.41
2018-06-10T05:05:30.115Z,1005.38
2018-06-10T05:06:30.099Z,1005.36
2018-06-10T05:07:30.083Z,1005.33
2018-06-10T05:08:30.074Z,1005.35
2018-06-10T05:09:30.053Z,1005.31
2018-06-10T05:10:30.044Z,1005.35
2018-06-10T05:11:30.027Z,1005.36
2018-06-10T05:12:30.030Z,1005.35
2018-06-10T05:13:29.999Z,1005.36
2018-06-10T05:14:29.982Z,1005.39
2018-06-10T05:15:29.969Z,1005.40
2018-06-10T05:16:29.958Z,1005.42
2018-06-10T05:17:29.941Z,1005.44
2018-06-10T05:18:29.922Z,1005.40
2018-06-10T05:19:29.910Z,1005.40
2018-06-10T05:20:29.915Z,1005.42
2018-06-10T05:21:29.880Z,1005.39
2018-06-10T05:22:29.866Z,1005.41
2018-06-10T05:23:29.849Z,1005.42
2018-06-10T05:24:29.835Z,1005.45
2018-06-10T05:25:29.828Z,1005.49
2018-06-10T05:26:29.810Z,1005.49
2018-06-10T05:27:29.793Z,1005.49
2018-06-10T05:28:29.774Z,1005.52
2018-06-10T05:29:29.766Z,1005.57
2018-06-10T05:30:29.748Z,1005.56
2018-06-10T05:31:29.735Z,1005.62
2018-06-10T05:32:29.717Z,1005.64
2018-06-10T05:33:29.708Z,1005.64
2018-06-10T05:34:29.689Z,1005.67
2018-06-10T05:35:29.676Z,1005.64
2018-06-10T05:36:29.659Z,1005.66
2018-06-10T05:37:29.970Z,1005.61
2018-06-10T05:38:29.670Z,1005.60
2018-06-10T05:39:29.617Z,1005.59
2018-06-10T05:40:29.600Z,1005.59
2018-06-10T05:41:29.587Z,1005.63
2018-06-10T05:42:29.570Z,1005.59
2018-06-10T05:43:29.557Z,1005.60
2018-06-10T05:44:29.542Z,1005.64
2018-06-10T05:45:29.529Z,1005.63
2018-06-10T05:46:29.513Z,1005.61
2018-06-10T05:47:29.497Z,1005.61
2018-06-10T05:48:29.496Z,1005.60
2018-06-10T05:49:29.517Z,1005.63
2018-06-10T05:50:29.985Z,1005.63
2018-06-10T05:51:29.442Z,1005.63
2018-06-10T05:52:29.430Z,1005.62
2018-06-10T05:53:29.411Z,1005.64
2018-06-10T05:54:29.413Z,1005.65
2018-06-10T05:55:30.347Z,1005.60
2018-06-10T05:56:29.365Z,1005.63
2018-06-10T05:57:29.355Z,1005.59
2018-06-10T05:58:29.360Z,1005.61
2018-06-10T05:59:29.341Z,1005.61
2018-06-10T06:00:29.308Z,1005.64
2018-06-10T06:01:29.339Z,1005.63
2018-06-10T06:02:29.278Z,1005.62
2018-06-10T06:03:29.769Z,1005.63
2018-06-10T06:04:29.250Z,1005.68
2018-06-10T06:05:29.580Z,1005.66
2018-06-10T06:06:29.279Z,1005.70
2018-06-10T06:07:29.204Z,1005.68
2018-06-10T06:08:29.227Z,1005.71
2018-06-10T06:09:29.203Z,1005.74
2018-06-10T06:10:29.220Z,1005.68
2018-06-10T06:11:29.221Z,1005.71
2018-06-10T06:12:29.721Z,1005.70
2018-06-10T06:13:29.120Z,1005.73
2018-06-10T06:14:29.141Z,1005.74
2018-06-10T06:15:29.088Z,1005.76
2018-06-10T06:16:29.084Z,1005.75
2018-06-10T06:17:29.113Z,1005.78
2018-06-10T06:18:29.082Z,1005.81
2018-06-10T06:19:29.027Z,1005.82
2018-06-10T06:20:29.736Z,1005.83
2018-06-10T06:21:29.000Z,1005.86
2018-06-10T06:22:28.988Z,1005.85
2018-06-10T06:23:28.971Z,1005.88
2018-06-10T06:24:28.954Z,1005.90
2018-06-10T06:25:28.948Z,1005.90
2018-06-10T06:28:10.363Z,1005.92
2018-06-10T06:29:10.270Z,1005.88
2018-06-10T06:31:08.562Z,1005.93
2018-06-10T06:32:08.436Z,1005.92
2018-06-10T06:34:01.803Z,1005.91
2018-06-10T06:35:01.773Z,1005.91
2018-06-10T06:36:55.465Z,1005.94
2018-06-10T06:37:55.128Z,1005.99
2018-06-10T06:39:49.476Z,1005.98
2018-06-10T06:40:49.411Z,1005.94
2018-06-10T06:42:43.867Z,1005.97
2018-06-10T06:43:42.743Z,1005.96
2018-06-10T06:45:36.162Z,1005.96
2018-06-10T06:46:36.084Z,1005.91
2018-06-10T06:48:30.453Z,1005.96
2018-06-10T06:49:30.447Z,1005.92
2018-06-10T06:51:23.845Z,1005.97
2018-06-10T06:52:23.737Z,1005.94
2018-06-10T06:54:18.089Z,1005.98
2018-06-10T06:55:18.069Z,1005.96
2018-06-10T06:57:16.510Z,1005.94
2018-06-10T06:58:16.401Z,1005.97
2018-06-10T07:00:09.802Z,1005.99
2018-06-10T07:01:09.758Z,1005.96
2018-06-10T07:03:03.144Z,1005.98
2018-06-10T07:04:03.131Z,1005.99
2018-06-10T07:05:57.299Z,1006.02
2018-06-10T07:06:57.277Z,1006.01
2018-06-10T07:08:50.588Z,1006.01
2018-06-10T07:09:50.568Z,1005.99
2018-06-10T07:11:44.995Z,1005.99
2018-06-10T07:12:43.917Z,1006.00
2018-06-10T07:14:37.256Z,1006.03
2018-06-10T07:15:37.239Z,1006.05
2018-06-10T07:17:30.635Z,1006.01
2018-06-10T07:18:30.567Z,1006.01
2018-06-10T07:20:23.920Z,1006.06
2018-06-10T07:21:23.900Z,1006.02
2018-06-10T07:22:23.881Z,1006.04
2018-06-10T07:23:23.914Z,1006.06
2018-06-10T07:24:23.895Z,1006.06
2018-06-10T07:25:24.488Z,1006.07
2018-06-10T07:26:25.315Z,1006.06
2018-06-10T07:27:23.891Z,1006.07
2018-06-10T07:28:23.803Z,1006.07
2018-06-10T07:29:23.861Z,1006.04
2018-06-10T07:30:25.132Z,1006.05
2018-06-10T07:31:23.773Z,1006.04
2018-06-10T07:32:25.203Z,1006.01
2018-06-10T07:33:23.787Z,1006.02
2018-06-10T07:34:23.760Z,1005.98
2018-06-10T07:35:23.820Z,1005.98
2018-06-10T07:36:23.698Z,1005.98
2018-06-10T07:37:23.713Z,1006.00
2018-06-10T07:38:24.976Z,1005.97
2018-06-10T07:39:23.699Z,1005.97
2018-06-10T07:40:23.694Z,1005.99
2018-06-10T07:41:23.666Z,1006.03
2018-06-10T07:42:23.631Z,1006.04
2018-06-10T07:43:23.583Z,1006.05
2018-06-10T07:44:23.568Z,1005.99
2018-06-10T07:45:23.559Z,1006.04
2018-06-10T07:46:23.585Z,1006.03
2018-06-10T07:47:23.552Z,1006.02
2018-06-10T07:48:23.538Z,1006.02
2018-06-10T07:49:23.548Z,1005.99
2018-06-10T07:50:23.662Z,1006.01
2018-06-10T07:51:23.486Z,1006.05
2018-06-10T07:52:23.488Z,1006.04
2018-06-10T07:53:23.439Z,1006.01
2018-06-10T07:54:23.423Z,1006.06
2018-06-10T07:55:23.429Z,1006.05
2018-06-10T07:56:23.416Z,1006.07
2018-06-10T07:57:23.435Z,1006.07
2018-06-10T07:58:23.419Z,1006.09
2018-06-10T07:59:23.442Z,1006.15
2018-06-10T08:00:23.359Z,1006.09
2018-06-10T08:01:23.383Z,1006.13
2018-06-10T08:02:23.346Z,1006.11
2018-06-10T08:03:23.324Z,1006.05
2018-06-10T08:04:23.283Z,1006.03
2018-06-10T08:05:23.350Z,1006.00
2018-06-10T08:06:23.289Z,1005.97
2018-06-10T08:07:23.265Z,1005.99
2018-06-10T08:08:23.279Z,1005.97
2018-06-10T08:09:23.259Z,1005.99
2018-06-10T08:10:23.241Z,1006.03
2018-06-10T08:11:23.228Z,1005.98
2018-06-10T08:12:23.207Z,1006.02
2018-06-10T08:13:23.179Z,1006.02
2018-06-10T08:14:23.145Z,1006.03
2018-06-10T08:15:23.216Z,1006.06
2018-06-10T08:16:23.143Z,1006.09
2018-06-10T08:17:23.222Z,1006.09
2018-06-10T08:18:23.148Z,1006.08
2018-06-10T08:19:23.167Z,1006.05
2018-06-10T08:20:23.064Z,1006.03
2018-06-10T08:21:23.095Z,1006.02
2018-06-10T08:22:23.123Z,1006.08
2018-06-10T08:23:23.033Z,1006.03
2018-06-10T08:24:23.047Z,1006.04
2018-06-10T08:25:23.054Z,1006.03
2018-06-10T08:26:23.079Z,1006.02
2018-06-10T08:27:23.039Z,1006.01
2018-06-10T08:28:22.994Z,1005.98
2018-06-10T08:29:22.954Z,1005.93
2018-06-10T08:30:22.923Z,1005.94
2018-06-10T08:31:22.942Z,1005.91
2018-06-10T08:32:23.427Z,1005.92
2018-06-10T08:33:22.933Z,1005.90
2018-06-10T08:34:22.898Z,1005.88
2018-06-10T08:35:22.907Z,1005.87
2018-06-10T08:36:24.266Z,1005.85
2018-06-10T08:37:22.923Z,1005.87
2018-06-10T08:38:22.846Z,1005.88
2018-06-10T08:39:22.850Z,1005.83
2018-06-10T08:40:22.830Z,1005.87
2018-06-10T08:41:22.816Z,1005.86
2018-06-10T08:42:22.874Z,1005.92
2018-06-10T08:43:22.788Z,1005.91
2018-06-10T08:44:22.784Z,1005.90
2018-06-10T08:45:22.741Z,1005.92
2018-06-10T08:46:23.399Z,1005.91
2018-06-10T08:47:22.734Z,1005.95
2018-06-10T08:48:22.710Z,1005.94
2018-06-10T08:49:22.739Z,1005.98
2018-06-10T08:50:22.702Z,1005.95
2018-06-10T08:51:22.680Z,1005.94
2018-06-10T08:52:22.701Z,1005.94
2018-06-10T08:53:22.602Z,1005.96
2018-06-10T08:54:22.590Z,1005.94
2018-06-10T08:55:22.613Z,1005.98
2018-06-10T08:56:22.629Z,1005.95
2018-06-10T08:57:22.605Z,1005.97
2018-06-10T08:58:22.564Z,1005.98
2018-06-10T08:59:22.583Z,1005.98
2018-06-10T09:00:22.615Z,1005.99
2018-06-10T09:01:22.561Z,1005.97
2018-06-10T09:02:22.551Z,1005.96
2018-06-10T09:03:22.487Z,1005.95
2018-06-10T09:04:22.459Z,1005.99
2018-06-10T09:05:22.527Z,1005.96
2018-06-10T09:06:22.484Z,1005.98
2018-06-10T09:07:22.448Z,1005.97
2018-06-10T09:08:22.501Z,1005.98
2018-06-10T09:09:22.432Z,1005.97
2018-06-10T09:10:22.454Z,1005.98
2018-06-10T09:11:22.392Z,1006.00
2018-06-10T09:12:22.373Z,1006.01
2018-06-10T09:13:22.328Z,1005.99
2018-06-10T09:14:22.320Z,1005.97
2018-06-10T09:15:22.343Z,1005.98
2018-06-10T09:16:22.326Z,1006.00
2018-06-10T09:17:22.301Z,1006.00
2018-06-10T09:18:22.352Z,1006.07
2018-06-10T09:19:22.261Z,1006.05
2018-06-10T09:20:22.289Z,1006.06
2018-06-10T09:21:22.251Z,1006.08
2018-06-10T09:22:22.263Z,1006.10
2018-06-10T09:23:22.203Z,1006.10
2018-06-10T09:24:22.189Z,1006.13
2018-06-10T09:25:22.540Z,1006.14
2018-06-10T09:26:22.185Z,1006.10
2018-06-10T09:27:22.237Z,1006.09
2018-06-10T09:28:22.436Z,1006.06
2018-06-10T09:29:22.309Z,1006.11
2018-06-10T09:30:22.134Z,1006.12
2018-06-10T09:31:22.184Z,1006.13
2018-06-10T09:32:22.122Z,1006.11
2018-06-10T09:33:22.836Z,1006.14
2018-06-10T09:34:22.130Z,1006.17
2018-06-10T09:35:22.096Z,1006.16
2018-06-10T09:36:22.071Z,1006.13
2018-06-10T09:37:22.023Z,1006.15
2018-06-10T09:38:22.027Z,1006.17
2018-06-10T09:39:21.975Z,1006.17
2018-06-10T09:40:21.965Z,1006.15
2018-06-10T09:41:21.947Z,1006.12
2018-06-10T09:42:21.952Z,1006.13
2018-06-10T09:43:21.918Z,1006.15
2018-06-10T09:44:21.902Z,1006.15
2018-06-10T09:45:21.904Z,1006.14
2018-06-10T09:46:21.885Z,1006.13
2018-06-10T09:47:21.893Z,1006.11
2018-06-10T09:48:21.869Z,1006.13
2018-06-10T09:49:21.838Z,1006.11
2018-06-10T09:50:21.823Z,1006.11
2018-06-10T09:51:21.845Z,1006.12
2018-06-10T09:52:21.829Z,1006.10
2018-06-10T09:53:21.810Z,1006.17
2018-06-10T09:54:21.772Z,1006.14
2018-06-10T09:55:21.885Z,1006.15
2018-06-10T09:56:21.755Z,1006.14
2018-06-10T09:57:21.745Z,1006.13
2018-06-10T09:58:21.751Z,1006.11
2018-06-10T09:59:21.710Z,1006.12
2018-06-10T10:00:21.691Z,1006.16
2018-06-10T10:01:21.694Z,1006.14
2018-06-10T10:02:21.682Z,1006.16
2018-06-10T10:03:21.686Z,1006.17
2018-06-10T10:04:21.676Z,1006.15
2018-06-10T10:05:21.632Z,1006.12
2018-06-10T10:06:21.626Z,1006.15
2018-06-10T10:07:21.602Z,1006.11
2018-06-10T10:08:21.618Z,1006.13
2018-06-10T10:09:21.573Z,1006.13
2018-06-10T10:10:21.561Z,1006.16
2018-06-10T10:11:21.642Z,1006.14
2018-06-10T10:12:21.572Z,1006.16
2018-06-10T10:13:21.692Z,1006.20
2018-06-10T10:14:21.576Z,1006.21
2018-06-10T10:15:21.537Z,1006.21
2018-06-10T10:16:21.539Z,1006.18
2018-06-10T10:17:21.473Z,1006.18
2018-06-10T10:18:21.483Z,1006.20
2018-06-10T10:19:21.445Z,1006.26
2018-06-10T10:20:21.430Z,1006.26
2018-06-10T10:21:21.444Z,1006.26
2018-06-10T10:22:21.408Z,1006.28
2018-06-10T10:23:21.401Z,1006.26
2018-06-10T10:24:21.382Z,1006.26
2018-06-10T10:25:21.417Z,1006.22
2018-06-10T10:26:21.353Z,1006.23
2018-06-10T10:27:21.340Z,1006.30
2018-06-10T10:28:21.343Z,1006.30
2018-06-10T10:29:21.350Z,1006.27
2018-06-10T10:30:21.304Z,1006.28
2018-06-10T10:31:21.334Z,1006.28
2018-06-10T10:32:21.285Z,1006.28
2018-06-10T10:33:21.269Z,1006.31
2018-06-10T10:34:21.287Z,1006.23
2018-06-10T10:35:21.240Z,1006.27
2018-06-10T10:36:21.279Z,1006.23
2018-06-10T10:37:21.215Z,1006.23
2018-06-10T10:38:21.243Z,1006.23
2018-06-10T10:39:21.200Z,1006.22
2018-06-10T10:40:21.228Z,1006.23
2018-06-10T10:41:21.166Z,1006.25
2018-06-10T10:42:21.149Z,1006.22
2018-06-10T10:43:21.163Z,1006.23
2018-06-10T10:44:21.235Z,1006.27
2018-06-10T10:45:21.118Z,1006.25
2018-06-10T10:46:21.101Z,1006.27
2018-06-10T10:47:21.089Z,1006.29
2018-06-10T10:48:21.105Z,1006.28
2018-06-10T10:49:21.079Z,1006.27
2018-06-10T10:50:21.059Z,1006.28
2018-06-10T10:51:21.047Z,1006.27
2018-06-10T10:52:21.170Z,1006.30
2018-06-10T10:53:21.016Z,1006.29
2018-06-10T10:54:21.014Z,1006.31
2018-06-10T10:55:20.992Z,1006.29
2018-06-10T10:56:21.010Z,1006.35
2018-06-10T10:57:20.966Z,1006.39
2018-06-10T10:58:20.950Z,1006.40
2018-06-10T10:59:20.945Z,1006.38
2018-06-10T11:00:20.929Z,1007.19
2018-06-10T11:01:20.914Z,1006.49
2018-06-10T11:02:20.906Z,1006.85
2018-06-10T11:03:20.892Z,1007.32
2018-06-10T11:04:20.882Z,1007.60
2018-06-10T11:05:20.869Z,1007.67
2018-06-10T11:06:20.863Z,1007.68
2018-06-10T11:07:20.841Z,1007.71
2018-06-10T11:08:20.868Z,1006.45
2018-06-10T11:09:20.882Z,1006.36
2018-06-10T11:10:20.871Z,1006.32
2018-06-10T11:11:20.862Z,1006.36
2018-06-10T11:12:20.788Z,1006.29
2018-06-10T11:13:20.854Z,1006.29
2018-06-10T11:14:20.763Z,1006.37
2018-06-10T11:15:20.759Z,1006.54
2018-06-10T11:16:22.108Z,1007.45
2018-06-10T11:17:20.774Z,1007.55
2018-06-10T11:18:20.931Z,1006.70
2018-06-10T11:19:21.050Z,1006.74
2018-06-10T11:20:21.629Z,1006.40
2018-06-10T11:21:20.704Z,1006.43
2018-06-10T11:23:16.119Z,1006.38
2018-06-10T11:24:15.079Z,1006.40
2018-06-10T11:26:08.562Z,1006.49
2018-06-10T11:27:09.130Z,1006.64
2018-06-10T11:29:10.247Z,1006.54
2018-06-10T11:30:12.717Z,1006.49
2018-06-10T11:32:06.398Z,1006.38
2018-06-10T11:33:05.268Z,1006.43
2018-06-10T11:34:56.719Z,1006.70
2018-06-10T11:35:56.570Z,1006.65
2018-06-10T11:37:50.512Z,1006.85
2018-06-10T11:38:50.296Z,1006.95
2018-06-10T11:40:43.692Z,1006.92
2018-06-10T11:42:57.814Z,1007.02
2018-06-10T11:43:58.989Z,1006.99
2018-06-10T11:45:53.259Z,1007.01
2018-06-10T11:46:53.352Z,1006.73
2018-06-10T11:47:52.794Z,1006.73
2018-06-10T11:48:52.798Z,1006.82
2018-06-10T11:49:52.785Z,1006.79
2018-06-10T11:50:53.133Z,1006.85
2018-06-10T11:51:52.775Z,1006.50
2018-06-10T11:52:52.780Z,1006.43
2018-06-10T11:53:52.760Z,1006.44
2018-06-10T11:54:52.748Z,1006.40
2018-06-10T11:55:52.766Z,1006.38
2018-06-10T11:56:52.737Z,1006.43
2018-06-10T11:57:52.766Z,1006.40
2018-06-10T11:58:52.726Z,1006.43
2018-06-10T11:59:52.716Z,1006.46
2018-06-10T12:00:52.717Z,1006.42
2018-06-10T12:01:52.724Z,1006.41
2018-06-10T12:02:52.699Z,1006.34
2018-06-10T12:03:52.691Z,1006.33
2018-06-10T12:04:52.686Z,1006.34
2018-06-10T12:05:52.678Z,1006.29
2018-06-10T12:06:52.670Z,1006.28
2018-06-10T12:07:52.730Z,1006.28
2018-06-10T12:08:52.655Z,1006.28
2018-06-10T12:09:52.647Z,1006.30
2018-06-10T12:10:52.661Z,1006.32
2018-06-10T12:11:52.645Z,1006.35
2018-06-10T12:12:52.628Z,1006.39
2018-06-10T12:13:52.632Z,1006.37
2018-06-10T12:14:52.611Z,1006.36
2018-06-10T12:15:52.598Z,1006.39
2018-06-10T12:16:52.594Z,1006.39
2018-06-10T12:17:52.570Z,1006.34
2018-06-10T12:18:52.566Z,1006.32
2018-06-10T12:19:52.569Z,1006.32
2018-06-10T12:20:52.546Z,1006.35
2018-06-10T12:21:52.534Z,1006.34
2018-06-10T12:22:52.538Z,1006.35
2018-06-10T12:23:52.515Z,1006.34
2018-06-10T12:24:52.504Z,1006.33
2018-06-10T12:25:52.497Z,1006.35
2018-06-10T12:26:52.491Z,1006.36
2018-06-10T12:27:52.481Z,1006.61
2018-06-10T12:28:52.464Z,1006.60
2018-06-10T12:29:52.449Z,1006.62
2018-06-10T12:30:52.448Z,1006.59
2018-06-10T12:31:52.429Z,1006.51